createdAt,value
2018-01-11T00:00:58.481Z,48.93
2018-01-11T00:03:26.865Z,38.23
2018-01-11T00:05:55.254Z,43.73
2018-01-11T00:08:23.638Z,42.10
2018-01-11T00:10:53.418Z,46.50
2018-01-11T00:13:22.082Z,43.77
2018-01-11T00:15:51.527Z,42.45
2018-01-11T00:18:20.271Z,38.47
2018-01-11T00:20:48.665Z,52.40
2018-01-11T00:23:17.261Z,50.60
2018-01-11T00:25:46.019Z,39.95
2018-01-11T00:28:15.525Z,33.05
2018-01-11T00:30:44.971Z,52.35
2018-01-11T00:33:13.345Z,32.20
2018-01-11T00:35:41.743Z,46.60
2018-01-11T00:38:10.313Z,45.13
2018-01-11T00:40:38.681Z,38.80
2018-01-11T00:43:07.352Z,38.90
2018-01-11T00:45:35.952Z,56.70
2018-01-11T00:48:03.992Z,65.60
2018-01-11T00:50:32.360Z,34.93
2018-01-11T00:53:00.740Z,39.20
2018-01-11T00:55:29.216Z,32.87
2018-01-11T00:57:57.594Z,53.00
2018-01-11T01:00:25.969Z,65.40
2018-01-11T01:02:55.382Z,49.33
2018-01-11T01:05:23.761Z,45.83
2018-01-11T01:07:52.153Z,49.10
2018-01-11T01:10:20.609Z,47.87
2018-01-11T01:12:50.205Z,63.70
2018-01-11T01:15:18.694Z,41.23
2018-01-11T01:17:48.112Z,47.78
2018-01-11T01:20:16.765Z,43.28
2018-01-11T01:22:45.149Z,40.95
2018-01-11T01:25:13.521Z,32.73
2018-01-11T01:27:42.205Z,37.50
2018-01-11T01:30:11.665Z,44.60
2018-01-11T01:32:41.053Z,37.37
2018-01-11T01:35:09.437Z,33.47
2018-01-11T01:37:37.880Z,39.20
2018-01-11T01:40:06.259Z,50.60
2018-01-11T01:42:35.669Z,36.97
2018-01-11T01:45:04.053Z,29.43
2018-01-11T01:47:32.744Z,33.28
2018-01-11T01:50:01.871Z,51.97
2018-01-11T01:52:30.833Z,39.30
2018-01-11T01:55:00.022Z,41.13
2018-01-11T01:57:28.699Z,48.73
2018-01-11T01:59:57.389Z,25.37
2018-01-11T02:02:25.773Z,34.80
2018-01-11T02:04:54.162Z,36.20
2018-01-11T02:07:22.553Z,50.67
2018-01-11T02:09:50.974Z,41.67
2018-01-11T02:12:19.462Z,28.97
2018-01-11T02:14:48.890Z,30.97
2018-01-11T02:17:17.263Z,50.60
2018-01-11T02:19:46.666Z,47.67
2018-01-11T02:22:15.453Z,31.17
2018-01-11T02:24:43.902Z,34.43
2018-01-11T02:27:12.552Z,43.07
2018-01-11T02:29:41.217Z,30.77
2018-01-11T02:32:10.508Z,29.20
2018-01-11T02:34:38.874Z,27.87
2018-01-11T02:37:08.185Z,29.57
2018-01-11T02:39:36.825Z,35.03
2018-01-11T02:42:05.266Z,44.30
2018-01-11T02:44:34.645Z,31.90
2018-01-11T02:47:03.014Z,47.20
2018-01-11T02:49:32.640Z,32.03
2018-01-11T02:52:01.025Z,40.83
2018-01-11T02:54:29.678Z,31.73
2018-01-11T02:56:58.053Z,32.00
2018-01-11T02:59:26.761Z,36.13
2018-01-11T03:01:55.145Z,47.27
2018-01-11T03:04:23.797Z,34.60
2018-01-11T03:06:52.696Z,39.27
2018-01-11T03:09:22.100Z,44.13
2018-01-11T03:11:50.557Z,30.60
2018-01-11T03:14:19.248Z,54.23
2018-01-11T03:16:47.623Z,32.83
2018-01-11T03:19:17.049Z,41.97
2018-01-11T03:21:45.564Z,37.73
2018-01-11T03:24:14.166Z,57.03
2018-01-11T03:26:43.396Z,68.20
2018-01-11T03:29:12.710Z,52.93
2018-01-11T03:31:41.076Z,38.83
2018-01-11T03:34:10.538Z,50.67
2018-01-11T03:36:39.286Z,35.58
2018-01-11T03:39:08.678Z,32.60
2018-01-11T03:41:38.082Z,29.10
2018-01-11T03:44:07.505Z,42.27
2018-01-11T03:46:35.960Z,32.07
2018-01-11T03:49:04.610Z,33.22
2018-01-11T03:51:33.078Z,41.20
2018-01-11T03:54:01.651Z,53.87
2018-01-11T03:56:30.105Z,40.40
2018-01-11T03:58:58.825Z,49.07
2018-01-11T04:01:27.481Z,52.80
2018-01-11T04:03:56.137Z,31.20
2018-01-11T04:06:24.915Z,25.13
2018-01-11T04:08:53.561Z,30.63
2018-01-11T04:11:22.218Z,21.83
2018-01-11T04:13:50.617Z,33.33
2018-01-11T04:16:20.047Z,36.90
2018-01-11T04:18:48.593Z,36.97
2018-01-11T04:21:16.972Z,29.90
2018-01-11T04:23:45.533Z,37.97
2018-01-11T04:26:13.917Z,23.67
2018-01-11T04:28:42.415Z,26.27
2018-01-11T04:31:11.143Z,29.87
2018-01-11T04:33:39.650Z,32.07
2018-01-11T04:36:08.326Z,31.20
2018-01-11T04:38:36.722Z,31.80
2018-01-11T04:41:05.226Z,25.90
2018-01-11T04:43:33.891Z,25.93
2018-01-11T04:46:03.432Z,23.35
2018-01-11T04:48:32.090Z,23.75
2018-01-11T04:51:00.750Z,26.10
2018-01-11T04:53:29.410Z,21.10
2018-01-11T04:55:58.834Z,27.27
2018-01-11T04:58:27.485Z,24.75
2018-01-11T05:00:56.188Z,21.10
2018-01-11T05:03:25.606Z,20.47
2018-01-11T05:05:53.994Z,22.67
2018-01-11T05:08:22.363Z,20.60
2018-01-11T05:10:51.969Z,20.83
2018-01-11T05:13:20.474Z,21.33
2018-01-11T05:15:49.118Z,20.98
2018-01-11T05:18:17.923Z,24.77
2018-01-11T05:20:47.102Z,21.53
2018-01-11T05:23:15.486Z,16.40
2018-01-11T05:25:44.901Z,21.65
2018-01-11T05:28:13.609Z,22.90
2018-01-11T05:30:41.981Z,21.80
2018-01-11T05:33:10.355Z,20.90
2018-01-11T05:35:39.109Z,18.90
2018-01-11T05:38:07.478Z,19.43
2018-01-11T05:40:36.989Z,20.87
2018-01-11T05:43:05.471Z,19.90
2018-01-11T05:45:34.477Z,21.40
2018-01-11T05:48:02.849Z,23.00
2018-01-11T05:50:32.449Z,20.10
2018-01-11T05:53:01.352Z,21.07
2018-01-11T05:55:29.717Z,18.30
2018-01-11T05:57:58.109Z,17.47
2018-01-11T06:00:26.756Z,18.53
2018-01-11T06:02:55.897Z,20.17
2018-01-11T06:05:25.374Z,17.23
2018-01-11T06:07:53.751Z,16.63
2018-01-11T06:10:22.126Z,17.00
2018-01-11T06:12:50.662Z,16.67
2018-01-11T06:15:19.102Z,16.50
2018-01-11T06:17:47.750Z,18.15
2018-01-11T06:20:15.948Z,18.37
2018-01-11T06:22:45.274Z,19.23
2018-01-11T06:25:13.831Z,17.70
2018-01-11T06:27:42.250Z,26.83
2018-01-11T06:30:10.622Z,25.03
2018-01-11T06:32:38.993Z,23.40
2018-01-11T06:35:07.989Z,22.70
2018-01-11T06:37:36.437Z,18.37
2018-01-11T06:40:05.849Z,17.60
2018-01-11T06:42:35.277Z,19.00
2018-01-11T06:45:03.326Z,18.60
2018-01-11T06:47:31.791Z,16.03
2018-01-11T06:50:00.177Z,21.10
2018-01-11T06:52:28.565Z,15.43
2018-01-11T06:54:57.023Z,22.37
2018-01-11T06:57:26.455Z,16.42
2018-01-11T06:59:54.833Z,19.60
2018-01-11T07:02:23.529Z,19.00
2018-01-11T07:04:52.036Z,18.23
2018-01-11T07:07:21.184Z,14.30
2018-01-11T07:09:49.570Z,15.67
2018-01-11T07:12:19.034Z,16.98
2018-01-11T07:14:47.402Z,14.43
2018-01-11T07:17:16.052Z,15.25
2018-01-11T07:19:44.450Z,13.40
2018-01-11T07:22:13.686Z,16.90
2018-01-11T07:24:43.103Z,15.02
2018-01-11T07:27:11.488Z,18.30
2018-01-11T07:29:39.859Z,14.20
2018-01-11T07:32:08.434Z,14.00
2018-01-11T07:34:36.825Z,15.50
2018-01-11T07:37:05.200Z,11.97
2018-01-11T07:39:33.581Z,14.00
2018-01-11T07:42:02.243Z,14.55
2018-01-11T07:44:30.671Z,17.93
2018-01-11T07:46:59.809Z,14.07
2018-01-11T07:49:28.187Z,13.67
2018-01-11T07:51:56.571Z,13.97
2018-01-11T07:54:25.989Z,12.63
2018-01-11T07:56:54.649Z,12.85
2018-01-11T07:59:23.027Z,13.50
2018-01-11T08:01:51.415Z,14.80
2018-01-11T08:04:19.826Z,12.60
2018-01-11T08:06:48.356Z,13.27
2018-01-11T08:09:16.990Z,12.68
2018-01-11T08:11:45.577Z,14.87
2018-01-11T08:14:13.766Z,14.90
2018-01-11T08:16:42.992Z,12.20
2018-01-11T08:19:13.044Z,13.40
2018-01-11T08:21:41.714Z,17.12
2018-01-11T08:24:10.310Z,13.53
2018-01-11T08:26:38.702Z,16.53
2018-01-11T08:29:06.890Z,24.20
2018-01-11T08:31:35.293Z,14.63
2018-01-11T08:34:04.478Z,10.77
2018-01-11T08:36:33.033Z,15.53
2018-01-11T08:39:01.397Z,12.00
2018-01-11T08:41:29.781Z,13.37
2018-01-11T08:43:58.157Z,15.13
2018-01-11T08:46:26.837Z,13.82
2018-01-11T08:48:55.496Z,17.93
2018-01-11T08:51:23.689Z,16.33
2018-01-11T08:53:52.209Z,16.27
2018-01-11T08:56:20.742Z,17.73
2018-01-11T08:58:49.118Z,18.10
2018-01-11T09:01:17.488Z,17.60
2018-01-11T09:03:46.134Z,25.92
2018-01-11T09:06:14.496Z,20.93
2018-01-11T09:08:42.880Z,18.30
2018-01-11T09:11:11.658Z,30.15
2018-01-11T09:13:40.434Z,21.30
2018-01-11T09:16:08.990Z,32.23
2018-01-11T09:18:37.710Z,24.60
2018-01-11T09:21:06.790Z,21.07
2018-01-11T09:23:35.677Z,23.60
2018-01-11T09:26:04.143Z,18.03
2018-01-11T09:28:32.723Z,21.03
2018-01-11T09:31:01.205Z,20.67
2018-01-11T09:33:29.682Z,16.17
2018-01-11T09:35:58.593Z,16.80
2018-01-11T09:38:27.305Z,22.20
2018-01-11T09:40:56.253Z,22.58
2018-01-11T09:43:25.519Z,23.10
2018-01-11T09:45:54.653Z,26.30
2018-01-11T09:48:24.102Z,39.53
2018-01-11T09:50:53.489Z,30.00
2018-01-11T09:53:22.139Z,37.22
2018-01-11T09:55:50.524Z,39.13
2018-01-11T09:58:18.983Z,39.57
2018-01-11T10:00:47.353Z,43.38
2018-01-11T10:03:16.040Z,36.60
2018-01-11T10:05:44.688Z,40.20
2018-01-11T10:08:13.340Z,37.07
2018-01-11T10:10:41.804Z,46.60
2018-01-11T10:13:11.214Z,41.65
2018-01-11T10:15:39.594Z,49.03
2018-01-11T10:18:07.974Z,35.30
2018-01-11T10:20:36.344Z,35.87
2018-01-11T10:23:04.710Z,37.07
2018-01-11T10:25:34.050Z,39.80
2018-01-11T10:28:02.422Z,37.97
2018-01-11T10:30:31.258Z,38.67
2018-01-11T10:33:00.506Z,32.92
2018-01-11T10:35:29.162Z,35.75
2018-01-11T10:37:58.462Z,32.77
2018-01-11T10:40:27.766Z,39.60
2018-01-11T10:42:56.134Z,49.93
2018-01-11T10:45:24.522Z,37.37
2018-01-11T10:47:52.910Z,42.37
2018-01-11T10:50:21.467Z,50.07
2018-01-11T10:52:49.961Z,42.80
2018-01-11T10:55:18.429Z,37.10
2018-01-11T10:57:47.663Z,35.33
2018-01-11T11:00:15.373Z,57.40
2018-01-11T11:02:49.858Z,37.43
2018-01-11T11:05:18.523Z,28.00
2018-01-11T11:07:47.169Z,34.67
2018-01-11T11:10:15.962Z,28.83
2018-01-11T11:12:44.326Z,43.43
2018-01-11T11:15:12.895Z,32.90
2018-01-11T11:17:41.437Z,39.67
2018-01-11T11:20:09.889Z,27.23
2018-01-11T11:22:38.261Z,28.43
2018-01-11T11:25:06.433Z,29.17
2018-01-11T11:27:34.823Z,32.57
2018-01-11T11:30:03.833Z,36.80
2018-01-11T11:32:32.806Z,30.85
2018-01-11T11:35:01.282Z,31.57
2018-01-11T11:37:29.977Z,28.73
2018-01-11T11:39:58.380Z,32.80
2018-01-11T11:42:27.476Z,36.43
2018-01-11T11:44:56.141Z,33.03
2018-01-11T11:47:24.522Z,28.03
2018-01-11T11:49:53.014Z,30.10
2018-01-11T11:52:21.706Z,30.93
2018-01-11T11:54:50.121Z,37.17
2018-01-11T11:57:18.777Z,43.33
2018-01-11T11:59:47.522Z,44.25
2018-01-11T12:02:16.957Z,43.85
2018-01-11T12:04:45.486Z,41.97
2018-01-11T12:07:14.192Z,47.10
2018-01-11T12:09:42.586Z,31.40
2018-01-11T12:12:11.702Z,26.57
2018-01-11T12:14:40.361Z,20.15
2018-01-11T12:17:09.034Z,26.07
2018-01-11T12:19:37.409Z,28.50
2018-01-11T12:22:05.773Z,22.87
2018-01-11T12:24:34.371Z,21.03
2018-01-11T12:27:03.090Z,28.27
2018-01-11T12:29:31.689Z,19.93
2018-01-11T12:32:00.361Z,19.30
2018-01-11T12:34:29.013Z,20.80
2018-01-11T12:36:57.740Z,18.80
2018-01-11T12:39:26.129Z,17.87
2018-01-11T12:41:54.760Z,16.03
2018-01-11T12:44:23.544Z,20.27
2018-01-11T12:46:53.278Z,16.35
2018-01-11T12:49:22.040Z,18.00
2018-01-11T12:51:50.414Z,15.60
2018-01-11T12:54:19.922Z,16.00
2018-01-11T12:56:48.355Z,16.83
2018-01-11T12:59:16.726Z,16.90
2018-01-11T13:01:45.311Z,17.93
2018-01-11T13:04:13.946Z,16.13
2018-01-11T13:06:42.357Z,17.87
2018-01-11T13:09:11.094Z,21.10
2018-01-11T13:11:39.734Z,20.40
2018-01-11T13:14:08.290Z,22.00
2018-01-11T13:16:37.062Z,17.70
2018-01-11T13:19:05.734Z,21.13
2018-01-11T13:21:35.186Z,18.50
2018-01-11T13:24:04.049Z,21.00
2018-01-11T13:26:33.251Z,26.87
2018-01-11T13:29:02.453Z,20.20
2018-01-11T13:31:30.860Z,23.67
2018-01-11T13:33:59.505Z,24.67
2018-01-11T13:36:28.187Z,24.43
2018-01-11T13:38:56.389Z,24.67
2018-01-11T13:41:24.765Z,20.93
2018-01-11T13:43:54.150Z,20.67
2018-01-11T13:46:22.570Z,16.17
2018-01-11T13:48:50.953Z,21.93
2018-01-11T13:51:20.089Z,18.63
2018-01-11T13:53:49.511Z,21.37
2018-01-11T13:56:17.877Z,22.07
2018-01-11T13:58:46.580Z,19.17
2018-01-11T14:01:15.237Z,22.00
2018-01-11T14:03:43.618Z,22.63
2018-01-11T14:06:12.172Z,19.90
2018-01-11T14:08:41.314Z,24.37
2018-01-11T14:11:09.684Z,22.70
2018-01-11T14:13:38.326Z,19.85
2018-01-11T14:16:06.894Z,20.33
2018-01-11T14:18:35.646Z,18.55
2018-01-11T14:21:05.232Z,20.55
2018-01-11T14:23:34.140Z,16.70
2018-01-11T14:26:03.434Z,19.30
2018-01-11T14:28:31.842Z,14.57
2018-01-11T14:31:00.233Z,16.50
2018-01-11T14:33:29.177Z,18.00
2018-01-11T14:35:57.573Z,17.60
2018-01-11T14:38:26.224Z,20.20
2018-01-11T14:40:54.829Z,18.00
2018-01-11T14:43:24.305Z,19.08
2018-01-11T14:45:52.697Z,15.10
2018-01-11T14:48:21.069Z,14.23
2018-01-11T14:50:50.485Z,15.82
2018-01-11T14:53:18.885Z,13.27
2018-01-11T14:55:47.349Z,15.03
2018-01-11T14:58:15.993Z,15.07
2018-01-11T15:00:45.141Z,13.93
2018-01-11T15:03:13.803Z,16.60
2018-01-11T15:05:42.452Z,15.38
2018-01-11T15:08:11.123Z,15.07
2018-01-11T15:10:39.641Z,16.80
2018-01-11T15:13:08.209Z,16.17
2018-01-11T15:15:38.377Z,18.02
2018-01-11T15:18:06.755Z,16.97
2018-01-11T15:20:35.129Z,19.90
2018-01-11T15:23:04.325Z,26.87
2018-01-11T15:25:32.698Z,24.50
2018-01-11T15:28:02.097Z,29.43
2018-01-11T15:30:30.476Z,22.77
2018-01-11T15:32:59.180Z,24.23
2018-01-11T15:35:27.546Z,20.60
2018-01-11T15:37:55.924Z,21.80
2018-01-11T15:40:24.376Z,17.30
2018-01-11T15:42:53.046Z,20.30
2018-01-11T15:45:22.482Z,16.98
2018-01-11T15:47:50.854Z,21.90
2018-01-11T15:50:19.520Z,19.10
2018-01-11T15:52:48.173Z,17.97
2018-01-11T15:55:17.110Z,19.93
2018-01-11T15:57:45.485Z,20.80
2018-01-11T16:00:14.705Z,23.87
2018-01-11T16:02:43.094Z,24.47
2018-01-11T16:05:11.569Z,22.23
2018-01-11T16:07:40.233Z,30.40
2018-01-11T16:10:08.889Z,28.73
2018-01-11T16:12:37.277Z,24.37
2018-01-11T16:15:06.761Z,23.42
2018-01-11T16:17:35.147Z,25.50
2018-01-11T16:20:04.252Z,31.73
2018-01-11T16:22:33.111Z,37.90
2018-01-11T16:25:01.950Z,46.90
2018-01-11T16:27:30.336Z,40.50
2018-01-11T16:29:59.532Z,59.27
2018-01-11T16:32:28.096Z,76.63
2018-01-11T16:34:56.516Z,62.73
2018-01-11T16:37:24.909Z,68.60
2018-01-11T16:39:53.550Z,69.68
2018-01-11T16:42:22.226Z,84.20
2018-01-11T16:44:51.047Z,63.08
2018-01-11T16:47:19.418Z,72.80
2018-01-11T16:49:48.070Z,72.15
2018-01-11T16:52:17.492Z,65.37
2018-01-11T16:54:45.875Z,77.07
2018-01-11T16:57:14.254Z,83.50
2018-01-11T16:59:42.453Z,84.93
2018-01-11T17:02:10.849Z,66.67
2018-01-11T17:04:39.353Z,84.20
2018-01-11T17:07:08.805Z,71.57
2018-01-11T17:09:37.513Z,85.32
2018-01-11T17:12:06.166Z,67.47
2018-01-11T17:14:34.885Z,59.57
2018-01-11T17:17:03.595Z,39.70
2018-01-11T17:19:32.109Z,39.20
2018-01-11T17:22:01.603Z,39.87
2018-01-11T17:24:29.981Z,30.20
2018-01-11T17:26:58.501Z,30.63
2018-01-11T17:29:27.180Z,27.37
2018-01-11T17:31:55.842Z,28.33
2018-01-11T17:34:24.216Z,25.20
2018-01-11T17:36:52.873Z,54.20
2018-01-11T17:39:21.060Z,57.27
2018-01-11T17:41:49.707Z,43.70
2018-01-11T17:44:18.648Z,39.60
2018-01-11T17:46:47.118Z,37.20
2018-01-11T17:49:15.678Z,39.20
2018-01-11T17:51:44.074Z,41.07
2018-01-11T17:54:12.778Z,66.60
2018-01-11T17:56:41.426Z,64.90
2018-01-11T17:59:09.806Z,67.87
2018-01-11T18:01:38.250Z,60.93
2018-01-11T18:04:07.581Z,58.33
2018-01-11T18:06:37.023Z,56.93
2018-01-11T18:09:04.729Z,58.20
2018-01-11T18:11:33.373Z,60.88
2018-01-11T18:14:03.349Z,76.47
2018-01-11T18:16:31.729Z,70.73
2018-01-11T18:19:01.141Z,77.40
2018-01-11T18:21:29.534Z,83.60
2018-01-11T18:23:58.196Z,64.20
2018-01-11T18:26:26.689Z,91.32
2018-01-11T18:28:55.073Z,73.20
2018-01-11T18:31:23.453Z,69.93
2018-01-11T18:33:51.817Z,64.90
2018-01-11T18:36:20.208Z,79.87
2018-01-11T18:38:48.242Z,78.97
2018-01-11T18:41:16.618Z,82.20
2018-01-11T18:43:45.013Z,81.73
2018-01-11T18:46:13.646Z,103.00
2018-01-11T18:48:42.376Z,94.07
2018-01-11T18:51:10.818Z,82.97
2018-01-11T18:53:40.254Z,78.00
2018-01-11T18:56:08.634Z,97.73
2018-01-11T18:58:37.290Z,95.38
2018-01-11T19:01:06.430Z,81.80
2018-01-11T19:03:34.826Z,81.17
2018-01-11T19:06:03.377Z,94.80
2018-01-11T19:08:31.746Z,73.87
2018-01-11T19:11:00.405Z,82.90
2018-01-11T19:13:29.065Z,70.15
2018-01-11T19:15:57.705Z,81.93
2018-01-11T19:18:25.827Z,73.97
2018-01-11T19:20:55.408Z,64.82
2018-01-11T19:23:24.840Z,76.43
2018-01-11T19:25:53.217Z,78.93
2018-01-11T19:28:21.638Z,72.77
2018-01-11T19:30:50.949Z,80.03
2018-01-11T19:33:20.023Z,80.13
2018-01-11T19:35:48.685Z,71.90
2018-01-11T19:38:17.343Z,75.07
2018-01-11T19:40:46.046Z,71.63
2018-01-11T19:43:14.432Z,78.00
2018-01-11T19:45:43.666Z,64.63
2018-01-11T19:48:12.259Z,70.83
2018-01-11T19:50:41.708Z,66.93
2018-01-11T19:53:10.859Z,90.73
2018-01-11T19:55:39.398Z,65.80
2018-01-11T19:58:08.056Z,71.45
2018-01-11T20:00:36.542Z,62.75
2018-01-11T20:03:04.928Z,80.87
2018-01-11T20:05:33.586Z,59.90
2018-01-11T20:08:02.235Z,75.57
2018-01-11T20:10:31.564Z,76.83
2018-01-11T20:12:59.954Z,67.10
2018-01-11T20:15:28.322Z,94.73
2018-01-11T20:17:57.270Z,68.75
2018-01-11T20:20:25.925Z,77.15
2018-01-11T20:22:54.297Z,71.47
2018-01-11T20:25:23.586Z,68.77
2018-01-11T20:27:52.593Z,61.90
2018-01-11T20:30:21.247Z,62.35
2018-01-11T20:32:49.897Z,66.28
2018-01-11T20:35:19.293Z,63.63
2018-01-11T20:37:47.660Z,70.60
2018-01-11T20:40:16.353Z,73.93
2018-01-11T20:42:44.825Z,65.77
2018-01-11T20:45:13.534Z,69.67
2018-01-11T20:47:41.911Z,69.00
2018-01-11T20:50:10.297Z,62.70
2018-01-11T20:52:39.517Z,62.47
2018-01-11T20:55:08.224Z,59.90
2018-01-11T20:57:36.819Z,58.27
2018-01-11T21:00:06.692Z,60.10
2018-01-11T21:02:35.177Z,55.13
2018-01-11T21:05:03.060Z,54.27
2018-01-11T21:07:31.442Z,58.57
2018-01-11T21:10:00.099Z,56.50
2018-01-11T21:12:28.484Z,51.63
2018-01-11T21:14:56.854Z,51.30
2018-01-11T21:17:25.315Z,43.37
2018-01-11T21:19:54.742Z,77.28
2018-01-11T21:22:23.234Z,55.80
2018-01-11T21:24:51.614Z,60.93
2018-01-11T21:27:20.277Z,68.53
2018-01-11T21:29:48.918Z,59.75
2018-01-11T21:32:18.070Z,52.77
2018-01-11T21:34:46.733Z,62.42
2018-01-11T21:37:16.141Z,56.92
2018-01-11T21:39:45.553Z,57.55
2018-01-11T21:42:14.234Z,61.40
2018-01-11T21:44:42.889Z,61.17
2018-01-11T21:47:12.020Z,70.57
2018-01-11T21:49:40.401Z,67.63
2018-01-11T21:52:08.961Z,58.57
2018-01-11T21:54:38.381Z,66.22
2018-01-11T21:57:07.065Z,64.30
2018-01-11T21:59:35.445Z,58.07
2018-01-11T22:02:03.769Z,63.40
2018-01-11T22:04:32.424Z,65.95
2018-01-11T22:07:00.801Z,38.70
2018-01-11T22:09:29.395Z,54.10
2018-01-11T22:11:57.814Z,49.23
2018-01-11T22:14:26.229Z,41.03
2018-01-11T22:16:54.601Z,37.20
2018-01-11T22:19:23.110Z,41.80
2018-01-11T22:21:52.576Z,49.20
2018-01-11T22:24:20.960Z,34.07
2018-01-11T22:26:49.494Z,39.57
2018-01-11T22:29:18.908Z,47.53
2018-01-11T22:31:49.022Z,37.53
2018-01-11T22:34:17.706Z,34.70
2018-01-11T22:36:46.388Z,41.22
2018-01-11T22:39:15.604Z,41.23
2018-01-11T22:41:43.989Z,39.13
2018-01-11T22:44:12.402Z,42.30
2018-01-11T22:46:41.384Z,41.13
2018-01-11T22:49:11.113Z,47.27
2018-01-11T22:51:39.775Z,49.08
2018-01-11T22:54:08.158Z,64.10
2018-01-11T22:56:36.830Z,47.80
2018-01-11T22:59:05.206Z,41.03
2018-01-11T23:01:35.044Z,47.53
2018-01-11T23:04:03.265Z,40.30
2018-01-11T23:06:31.585Z,40.78
2018-01-11T23:09:01.827Z,42.83
2018-01-11T23:11:35.914Z,49.60
2018-01-11T23:14:04.566Z,36.70
2018-01-11T23:16:33.044Z,51.97
2018-01-11T23:19:01.438Z,42.20
2018-01-11T23:21:29.810Z,49.17
2018-01-11T23:23:58.229Z,42.73
2018-01-11T23:26:26.613Z,52.37
2018-01-11T23:28:55.217Z,42.50
2018-01-11T23:31:23.881Z,40.75
2018-01-11T23:33:52.277Z,53.67
2018-01-11T23:36:20.930Z,43.63
2018-01-11T23:38:49.314Z,46.00
2018-01-11T23:41:17.990Z,39.83
2018-01-11T23:43:46.461Z,56.30
2018-01-11T23:46:15.457Z,55.58
2018-01-11T23:48:43.845Z,53.63
2018-01-11T23:51:12.279Z,48.73
2018-01-11T23:53:41.604Z,53.80
2018-01-11T23:56:10.087Z,47.58
2018-01-11T23:58:38.500Z,47.53
